Time;durP1;ratioP1;P1;durP2;ratioP2;P2;SDS_P1;SDS_P2;PMS_P1;PMS_P2;Temp;Humidity;BMP_temperature;BMP_pressure;BME280_temperature;BME280_humidity;BME280_pressure;Samples;Min_cycle;Max_cycle;Signal;HPM_P1;HPM_P2
2023/08/17 00:00:55;;;;;;;5.20;3.40;;;18.60;99.90;;;;;;5071914;28;20194;-79
2023/08/17 00:03:22;;;;;;;6.45;3.15;;;18.70;99.90;;;;;;5076432;28;20202;-79
2023/08/17 00:05:49;;;;;;;4.28;3.10;;;18.60;99.90;;;;;;5072464;28;20209;-79
2023/08/17 00:08:17;;;;;;;3.88;3.30;;;18.60;99.90;;;;;;5073605;28;20290;-79
2023/08/17 00:10:43;;;;;;;5.40;3.30;;;18.60;99.90;;;;;;5066791;28;20234;-79
2023/08/17 00:13:11;;;;;;;7.20;3.22;;;18.70;99.90;;;;;;5060347;28;20195;-78
2023/08/17 00:15:38;;;;;;;8.48;3.45;;;18.60;99.90;;;;;;5070427;28;20211;-79
2023/08/17 00:18:07;;;;;;;6.82;3.40;;;18.60;99.90;;;;;;5065463;28;20198;-79
2023/08/17 00:20:33;;;;;;;10.05;3.35;;;18.30;99.90;;;;;;5054792;28;20849;-78
2023/08/17 00:23:00;;;;;;;7.05;3.70;;;18.20;99.90;;;;;;5062376;28;20216;-78
2023/08/17 00:25:27;;;;;;;7.55;3.70;;;18.20;99.90;;;;;;5063438;28;20221;-78
2023/08/17 00:27:54;;;;;;;10.77;4.55;;;18.20;99.90;;;;;;5057320;28;20542;-77
2023/08/17 00:30:21;;;;;;;8.95;4.32;;;18.30;99.90;;;;;;5055155;28;20226;-78
2023/08/17 00:32:47;;;;;;;7.68;3.88;;;18.20;99.90;;;;;;5060797;28;20202;-79
2023/08/17 00:35:16;;;;;;;8.13;3.83;;;18.00;99.90;;;;;;5075034;28;20202;-79
2023/08/17 00:37:43;;;;;;;6.90;3.83;;;17.90;99.90;;;;;;5074980;28;20687;-78
2023/08/17 00:40:10;;;;;;;6.72;3.90;;;17.90;99.90;;;;;;5075435;28;20219;-77
2023/08/17 00:42:37;;;;;;;6.85;3.78;;;17.80;99.90;;;;;;5075322;28;20308;-78
2023/08/17 00:45:05;;;;;;;5.80;3.67;;;17.70;99.90;;;;;;5075028;28;20293;-79
2023/08/17 00:47:32;;;;;;;5.53;3.53;;;17.60;99.90;;;;;;5077098;28;20233;-79
2023/08/17 00:50:00;;;;;;;6.35;3.67;;;17.60;99.90;;;;;;5076149;28;20222;-78
2023/08/17 00:52:29;;;;;;;6.10;4.18;;;17.60;99.90;;;;;;5076365;28;20210;-79
2023/08/17 00:54:56;;;;;;;7.88;4.25;;;17.50;99.90;;;;;;5076779;28;20208;-78
2023/08/17 00:57:24;;;;;;;6.75;4.45;;;17.50;99.90;;;;;;5076778;28;20199;-79
2023/08/17 00:59:52;;;;;;;6.50;4.03;;;17.40;99.90;;;;;;5076041;28;20226;-78
2023/08/17 01:02:19;;;;;;;7.43;4.05;;;17.50;99.90;;;;;;5073556;28;20202;-78
2023/08/17 01:04:46;;;;;;;10.60;4.70;;;17.50;99.90;;;;;;5058227;28;20203;-79
2023/08/17 01:07:13;;;;;;;8.77;4.78;;;17.40;99.90;;;;;;5060622;28;20194;-79
2023/08/17 01:09:41;;;;;;;13.75;5.72;;;17.20;99.90;;;;;;5061519;28;20213;-79
2023/08/17 01:12:30;;;;;;;9.07;5.35;;;17.00;99.90;;;;;;5061623;28;20229;-78
2023/08/17 01:15:05;;;;;;;15.73;6.00;;;16.90;99.90;;;;;;5063239;28;20231;-79
2023/08/17 01:17:36;;;;;;;12.38;5.40;;;16.80;99.90;;;;;;5062374;28;20205;-80
2023/08/17 01:20:05;;;;;;;14.07;7.47;;;16.80;99.90;;;;;;5062620;28;20286;-80
2023/08/17 01:22:33;;;;;;;8.52;5.05;;;16.90;99.90;;;;;;5063317;28;20203;-80
2023/08/17 01:25:01;;;;;;;9.00;5.50;;;16.70;99.90;;;;;;5062407;28;20245;-80
2023/08/17 01:27:37;;;;;;;9.18;5.22;;;16.70;99.90;;;;;;5074453;28;20217;-81
2023/08/17 01:30:05;;;;;;;9.23;5.97;;;16.60;99.90;;;;;;5076262;28;20274;-80
2023/08/17 01:32:38;;;;;;;9.75;5.35;;;16.50;99.90;;;;;;5078809;28;20194;-81
2023/08/17 01:35:16;;;;;;;9.35;5.38;;;16.60;99.90;;;;;;5069820;28;20209;-79
2023/08/17 01:37:44;;;;;;;9.68;5.82;;;16.60;99.90;;;;;;5083679;28;20209;-81
2023/08/17 01:40:14;;;;;;;10.10;5.68;;;16.60;99.90;;;;;;5064032;28;20218;-79
2023/08/17 01:42:42;;;;;;;10.15;5.30;;;16.60;99.90;;;;;;5065559;28;20277;-80
2023/08/17 01:45:09;;;;;;;8.30;5.38;;;16.50;99.90;;;;;;5068465;28;20198;-80
2023/08/17 01:47:36;;;;;;;8.27;5.82;;;16.60;99.90;;;;;;5071615;28;20187;-79
2023/08/17 01:50:03;;;;;;;7.65;5.30;;;16.70;99.90;;;;;;5066039;28;20250;-79
2023/08/17 01:52:30;;;;;;;8.88;5.88;;;16.60;99.90;;;;;;5063638;28;20227;-79
2023/08/17 01:54:57;;;;;;;10.57;6.28;;;16.60;99.90;;;;;;5072680;28;20688;-80
2023/08/17 01:57:25;;;;;;;9.43;6.70;;;16.60;99.90;;;;;;5072871;28;20198;-80
2023/08/17 01:59:51;;;;;;;11.77;6.45;;;16.70;99.90;;;;;;5071866;28;20286;-80
2023/08/17 02:02:18;;;;;;;8.65;6.20;;;16.70;99.90;;;;;;5065613;28;20264;-80
2023/08/17 02:04:45;;;;;;;9.30;6.82;;;16.70;99.90;;;;;;5074043;28;20565;-81
2023/08/17 02:07:12;;;;;;;12.25;7.07;;;16.70;99.90;;;;;;5082715;28;20213;-80
2023/08/17 02:09:39;;;;;;;12.68;6.88;;;16.70;99.90;;;;;;5076482;28;20310;-80
2023/08/17 02:12:08;;;;;;;10.23;6.85;;;16.70;99.90;;;;;;5078506;28;20289;-80
2023/08/17 02:14:36;;;;;;;9.70;6.75;;;16.80;99.90;;;;;;5077145;28;20203;-81
2023/08/17 02:17:05;;;;;;;11.48;6.20;;;16.90;99.90;;;;;;5083883;28;20208;-81
2023/08/17 02:19:32;;;;;;;9.38;6.20;;;16.80;99.90;;;;;;5076777;28;20222;-80
2023/08/17 02:21:59;;;;;;;14.57;6.97;;;16.80;99.90;;;;;;5080963;28;20202;-81
2023/08/17 02:24:26;;;;;;;9.38;6.90;;;16.90;99.90;;;;;;5076403;28;20195;-81
2023/08/17 02:26:53;;;;;;;9.88;7.00;;;16.70;99.90;;;;;;5083118;28;20210;-80
2023/08/17 02:29:19;;;;;;;9.10;6.95;;;16.80;99.90;;;;;;5077689;28;20230;-81
2023/08/17 02:31:47;;;;;;;10.52;6.65;;;16.80;99.90;;;;;;5073192;28;20580;-81
2023/08/17 02:34:15;;;;;;;11.65;7.28;;;16.90;99.90;;;;;;5061927;28;20187;-81
2023/08/17 02:36:42;;;;;;;11.98;7.10;;;16.90;99.90;;;;;;5065846;28;20203;-80
2023/08/17 02:39:09;;;;;;;14.05;7.30;;;16.80;99.90;;;;;;5065135;28;20254;-80
2023/08/17 02:41:36;;;;;;;11.48;7.13;;;16.80;99.90;;;;;;5067548;28;20198;-81
2023/08/17 02:44:03;;;;;;;11.45;7.25;;;16.80;99.90;;;;;;5077155;28;20202;-81
2023/08/17 02:46:30;;;;;;;9.63;7.30;;;16.90;99.90;;;;;;5077482;28;20203;-81
2023/08/17 02:48:58;;;;;;;9.73;6.88;;;16.90;99.90;;;;;;5071399;28;20206;-80
2023/08/17 02:51:24;;;;;;;11.85;7.30;;;16.80;99.90;;;;;;5075743;28;20226;-82
2023/08/17 02:53:51;;;;;;;13.00;7.95;;;16.80;99.90;;;;;;5076988;28;20234;-82
2023/08/17 02:56:18;;;;;;;8.95;6.82;;;16.80;99.90;;;;;;5083438;28;20285;-81
2023/08/17 02:58:45;;;;;;;9.85;7.57;;;17.00;99.90;;;;;;5077417;28;20218;-81
2023/08/17 03:01:12;;;;;;;11.93;7.57;;;16.90;99.90;;;;;;5083625;28;20294;-82
2023/08/17 03:03:38;;;;;;;13.75;7.68;;;16.90;99.90;;;;;;5086794;28;20293;-81
2023/08/17 03:06:07;;;;;;;10.52;6.80;;;16.90;99.90;;;;;;5086435;28;20270;-81
2023/08/17 03:08:34;;;;;;;9.63;6.95;;;16.90;99.90;;;;;;5086350;28;20232;-82
2023/08/17 03:11:01;;;;;;;8.90;6.50;;;17.00;99.90;;;;;;5087593;28;20219;-81
2023/08/17 03:13:28;;;;;;;11.65;6.47;;;17.00;99.90;;;;;;5086539;28;20206;-82
2023/08/17 03:15:55;;;;;;;9.52;6.47;;;17.00;99.90;;;;;;5084757;28;20233;-82
2023/08/17 03:18:22;;;;;;;8.07;6.68;;;17.10;99.90;;;;;;5070602;28;20245;-81
2023/08/17 03:20:49;;;;;;;10.48;6.15;;;17.00;99.90;;;;;;5080092;28;20222;-81
2023/08/17 03:23:17;;;;;;;9.55;6.30;;;17.10;99.90;;;;;;5080391;28;20208;-82
2023/08/17 03:25:45;;;;;;;7.50;6.10;;;17.10;99.90;;;;;;5077864;28;20575;-83
2023/08/17 03:28:12;;;;;;;6.45;5.60;;;17.10;99.90;;;;;;5067656;28;20214;-82
2023/08/17 03:30:42;;;;;;;10.27;6.10;;;17.10;99.90;;;;;;5086669;28;20752;-82
2023/08/17 03:33:09;;;;;;;7.20;6.20;;;17.10;99.90;;;;;;5079337;28;20226;-82
2023/08/17 03:35:36;;;;;;;6.05;5.20;;;17.10;99.90;;;;;;5080677;28;20202;-81
2023/08/17 03:38:03;;;;;;;7.53;5.75;;;17.10;99.90;;;;;;5080453;28;20214;-83
2023/08/17 03:40:31;;;;;;;9.18;5.90;;;17.20;99.90;;;;;;5083054;28;20207;-81
2023/08/17 03:42:58;;;;;;;6.75;5.72;;;17.20;99.90;;;;;;5082661;28;20545;-83
2023/08/17 03:45:25;;;;;;;7.40;5.85;;;17.20;99.90;;;;;;5081488;28;20213;-82
2023/08/17 03:47:52;;;;;;;6.45;5.53;;;17.20;99.90;;;;;;5072505;28;20285;-82
2023/08/17 03:50:19;;;;;;;6.82;5.38;;;17.30;99.90;;;;;;5080189;28;20755;-82
2023/08/17 03:52:45;;;;;;;5.53;4.95;;;17.20;99.90;;;;;;5078700;28;20605;-82
2023/08/17 03:55:12;;;;;;;7.10;5.55;;;17.20;99.90;;;;;;5079316;28;20212;-82
2023/08/17 03:57:40;;;;;;;7.13;5.25;;;17.20;99.90;;;;;;5080534;28;20194;-82
2023/08/17 04:00:09;;;;;;;6.63;5.13;;;17.30;99.90;;;;;;5074863;28;20302;-83
2023/08/17 04:02:36;;;;;;;6.82;4.75;;;17.30;99.90;;;;;;5079449;28;20203;-82
2023/08/17 04:05:04;;;;;;;6.05;5.18;;;17.20;99.90;;;;;;5079912;28;20249;-82
2023/08/17 04:07:30;;;;;;;6.80;4.85;;;17.30;99.90;;;;;;5078327;28;20217;-81
2023/08/17 04:09:57;;;;;;;7.68;5.03;;;17.30;99.90;;;;;;5077316;28;20216;-81
2023/08/17 04:12:24;;;;;;;4.85;4.00;;;17.30;99.90;;;;;;5091404;28;20301;-80
2023/08/17 04:14:52;;;;;;;5.25;4.75;;;17.30;99.90;;;;;;5083914;28;20212;-80
2023/08/17 04:17:20;;;;;;;5.85;4.32;;;17.40;99.90;;;;;;5065301;28;20202;-81
2023/08/17 04:19:47;;;;;;;4.57;4.18;;;17.40;99.90;;;;;;5061050;28;20223;-81
2023/08/17 04:22:14;;;;;;;6.70;4.88;;;17.40;99.90;;;;;;5061048;28;20211;-81
2023/08/17 04:24:41;;;;;;;4.82;4.32;;;17.40;99.90;;;;;;5060231;28;20752;-81
2023/08/17 04:27:08;;;;;;;5.22;4.72;;;17.50;99.90;;;;;;5059961;28;20289;-81
2023/08/17 04:29:34;;;;;;;7.10;5.55;;;17.50;99.90;;;;;;5060045;28;20319;-81
2023/08/17 04:32:03;;;;;;;5.55;4.82;;;17.50;99.90;;;;;;5061126;28;20219;-81
2023/08/17 04:34:30;;;;;;;5.68;5.05;;;17.60;99.90;;;;;;5060401;28;20209;-81
2023/08/17 04:36:57;;;;;;;5.25;4.63;;;17.50;99.90;;;;;;5060536;28;20573;-81
2023/08/17 04:39:24;;;;;;;5.68;5.07;;;17.50;99.90;;;;;;5057457;28;20262;-82
2023/08/17 04:41:50;;;;;;;5.53;5.00;;;17.60;99.90;;;;;;5059918;28;20291;-83
2023/08/17 04:44:17;;;;;;;8.45;5.20;;;17.50;99.90;;;;;;5059916;28;20601;-82
2023/08/17 04:46:44;;;;;;;5.93;5.32;;;17.40;99.90;;;;;;5059807;28;20213;-81
2023/08/17 04:49:12;;;;;;;6.53;5.75;;;17.60;99.90;;;;;;5058545;28;20225;-81
2023/08/17 04:51:39;;;;;;;6.80;5.80;;;17.60;99.90;;;;;;5056195;28;20226;-82
2023/08/17 04:54:06;;;;;;;7.53;5.97;;;17.60;99.90;;;;;;5069310;28;20194;-80
2023/08/17 04:56:32;;;;;;;6.13;5.53;;;17.60;99.90;;;;;;5085607;28;20231;-81
2023/08/17 04:59:00;;;;;;;7.65;5.47;;;17.60;99.90;;;;;;5072024;28;20230;-81
2023/08/17 05:01:27;;;;;;;6.93;5.43;;;17.60;99.90;;;;;;5076564;28;20285;-82
2023/08/17 05:03:54;;;;;;;6.85;5.38;;;17.50;99.90;;;;;;5078217;28;20194;-82
2023/08/17 05:06:22;;;;;;;7.05;5.18;;;17.70;99.90;;;;;;5078987;28;20199;-82
2023/08/17 05:08:49;;;;;;;6.00;5.50;;;17.60;99.90;;;;;;5069199;28;20587;-82
2023/08/17 05:11:16;;;;;;;8.00;5.63;;;17.70;99.90;;;;;;5059454;28;20210;-82
2023/08/17 05:13:43;;;;;;;6.65;5.70;;;17.70;99.90;;;;;;5058933;28;20206;-81
2023/08/17 05:16:10;;;;;;;7.50;5.75;;;17.80;99.90;;;;;;5059287;28;20218;-82
2023/08/17 05:18:37;;;;;;;7.30;6.30;;;17.70;99.90;;;;;;5060934;28;20219;-82
2023/08/17 05:21:04;;;;;;;6.53;5.55;;;17.70;99.90;;;;;;5061295;28;20211;-81
2023/08/17 05:23:32;;;;;;;7.50;5.75;;;17.70;99.90;;;;;;5076455;28;20578;-82
2023/08/17 05:25:58;;;;;;;7.40;5.60;;;17.70;99.90;;;;;;5091452;28;20198;-81
2023/08/17 05:28:25;;;;;;;6.57;5.95;;;17.80;99.90;;;;;;5098774;28;20678;-82
2023/08/17 05:30:53;;;;;;;8.57;6.13;;;17.80;99.90;;;;;;5079984;28;20236;-81
2023/08/17 05:33:20;;;;;;;6.35;5.70;;;17.80;99.90;;;;;;5077351;28;20222;-81
2023/08/17 05:35:47;;;;;;;6.97;6.32;;;17.80;99.90;;;;;;5081378;28;20186;-82
2023/08/17 05:38:13;;;;;;;8.38;6.90;;;17.80;99.90;;;;;;5079096;28;20206;-82
2023/08/17 05:40:42;;;;;;;8.45;6.63;;;17.90;99.90;;;;;;5076534;28;20297;-81
2023/08/17 05:43:08;;;;;;;11.07;7.32;;;17.80;99.90;;;;;;5070588;28;20562;-83
2023/08/17 05:45:36;;;;;;;8.52;7.25;;;17.80;99.90;;;;;;5083992;28;20204;-82
2023/08/17 05:48:04;;;;;;;9.45;7.63;;;17.90;99.90;;;;;;5070327;28;20204;-82
2023/08/17 05:50:31;;;;;;;8.45;7.60;;;17.90;99.90;;;;;;5068490;28;20669;-81
2023/08/17 05:52:58;;;;;;;7.95;7.15;;;17.90;99.90;;;;;;5078014;28;20217;-83
2023/08/17 05:55:25;;;;;;;8.98;8.13;;;17.90;99.90;;;;;;5074241;28;20204;-82
2023/08/17 05:57:53;;;;;;;13.68;9.38;;;17.90;99.90;;;;;;5080018;28;20216;-82
2023/08/17 06:00:20;;;;;;;11.15;9.05;;;17.90;99.90;;;;;;5075314;28;20289;-82
2023/08/17 06:02:49;;;;;;;10.50;8.57;;;18.00;99.90;;;;;;5068766;28;20213;-82
2023/08/17 06:05:16;;;;;;;10.02;8.98;;;17.90;99.90;;;;;;5059441;28;20215;-83
2023/08/17 06:07:43;;;;;;;10.50;9.10;;;17.90;99.90;;;;;;5070436;28;20202;-81
2023/08/17 06:10:11;;;;;;;11.10;8.93;;;18.00;99.90;;;;;;5079622;28;20282;-83
2023/08/17 06:12:38;;;;;;;9.50;8.32;;;17.90;99.90;;;;;;5075921;28;20225;-82
2023/08/17 06:15:07;;;;;;;11.40;8.48;;;18.00;99.90;;;;;;5078858;28;20573;-83
2023/08/17 06:17:34;;;;;;;9.73;8.00;;;18.00;99.90;;;;;;5079854;28;20274;-83
2023/08/17 06:20:02;;;;;;;11.10;8.68;;;17.90;99.90;;;;;;5081231;28;20274;-82
2023/08/17 06:22:29;;;;;;;11.68;8.63;;;18.00;99.90;;;;;;5082532;28;20225;-82
2023/08/17 06:24:56;;;;;;;10.02;9.02;;;18.00;99.90;;;;;;5082230;28;20198;-81
2023/08/17 06:27:23;;;;;;;9.85;8.85;;;18.00;99.90;;;;;;5074772;28;20203;-81
2023/08/17 06:29:50;;;;;;;10.50;9.27;;;18.00;99.90;;;;;;5069877;28;20224;-82
2023/08/17 06:32:18;;;;;;;11.63;9.93;;;18.00;99.90;;;;;;5078408;28;20633;-81
2023/08/17 06:34:45;;;;;;;11.70;9.10;;;18.00;99.90;;;;;;5078928;28;20213;-81
2023/08/17 06:37:12;;;;;;;11.07;9.05;;;18.10;99.90;;;;;;5062525;28;20202;-81
2023/08/17 06:39:38;;;;;;;13.18;9.70;;;17.90;99.90;;;;;;5062047;28;20310;-82
2023/08/17 06:42:06;;;;;;;11.68;9.30;;;18.10;99.90;;;;;;5062566;28;20214;-81
2023/08/17 06:44:32;;;;;;;10.35;8.82;;;18.10;99.90;;;;;;5062234;28;20588;-82
2023/08/17 06:46:59;;;;;;;10.27;8.98;;;18.10;99.90;;;;;;5062116;28;20198;-81
2023/08/17 06:49:28;;;;;;;15.00;9.95;;;18.10;99.90;;;;;;5062754;28;20226;-80
2023/08/17 06:51:55;;;;;;;11.98;9.00;;;18.10;99.90;;;;;;5066646;28;20267;-81
2023/08/17 06:54:21;;;;;;;9.73;8.73;;;18.10;99.90;;;;;;5081723;28;20206;-81
2023/08/17 06:56:48;;;;;;;10.68;8.93;;;18.10;99.90;;;;;;5082170;28;20202;-82
2023/08/17 06:59:15;;;;;;;9.45;8.48;;;18.10;99.90;;;;;;5083195;28;20228;-82
2023/08/17 07:01:42;;;;;;;9.82;8.85;;;18.10;99.90;;;;;;5077881;28;20206;-80
2023/08/17 07:04:09;;;;;;;8.70;7.80;;;18.20;99.90;;;;;;5081789;28;20194;-81
2023/08/17 07:06:37;;;;;;;9.43;7.93;;;18.20;99.90;;;;;;5081813;28;20196;-80
2023/08/17 07:09:04;;;;;;;8.98;7.93;;;18.20;99.90;;;;;;5080837;28;20399;-82
2023/08/17 07:11:31;;;;;;;8.95;7.47;;;18.20;99.90;;;;;;5080455;28;20650;-79
2023/08/17 07:13:58;;;;;;;8.70;7.57;;;18.20;99.90;;;;;;5079567;28;20253;-81
2023/08/17 07:16:25;;;;;;;9.10;8.10;;;18.30;99.90;;;;;;5080060;28;20210;-82
2023/08/17 07:18:52;;;;;;;10.82;7.88;;;18.30;99.90;;;;;;5080286;28;20254;-82
2023/08/17 07:21:18;;;;;;;8.77;7.88;;;18.20;99.90;;;;;;5081347;28;20200;-82
2023/08/17 07:23:47;;;;;;;7.63;6.93;;;18.30;99.90;;;;;;5080658;28;20234;-81
2023/08/17 07:26:14;;;;;;;8.57;7.28;;;18.30;99.90;;;;;;5081485;28;20221;-81
2023/08/17 07:28:41;;;;;;;8.43;7.47;;;18.30;99.90;;;;;;5080356;28;20250;-82
2023/08/17 07:31:08;;;;;;;7.80;6.68;;;18.20;99.90;;;;;;5080642;28;20195;-83
2023/08/17 07:33:34;;;;;;;8.05;7.20;;;18.30;99.90;;;;;;5078223;28;20603;-82
2023/08/17 07:36:01;;;;;;;8.65;6.30;;;18.30;99.90;;;;;;5079577;28;20233;-82
2023/08/17 07:38:28;;;;;;;8.30;6.88;;;18.40;99.90;;;;;;5064377;28;20314;-80
2023/08/17 07:40:57;;;;;;;7.25;6.55;;;18.30;99.90;;;;;;5061146;28;20249;-82
2023/08/17 07:43:24;;;;;;;8.05;6.50;;;18.40;99.90;;;;;;5061438;28;20289;-82
2023/08/17 07:45:54;;;;;;;7.03;6.32;;;18.30;99.90;;;;;;5059343;28;20294;-82
2023/08/17 07:48:21;;;;;;;7.22;6.43;;;18.40;99.90;;;;;;5058580;28;20215;-82
2023/08/17 07:50:50;;;;;;;6.88;6.18;;;18.40;99.90;;;;;;5059817;28;20234;-81
2023/08/17 07:53:17;;;;;;;8.60;6.32;;;18.40;99.90;;;;;;5059152;28;20223;-82
2023/08/17 07:55:43;;;;;;;8.05;7.25;;;18.40;99.90;;;;;;5059767;28;20215;-83
2023/08/17 07:58:12;;;;;;;7.68;5.85;;;18.40;99.90;;;;;;5058447;28;20207;-81
2023/08/17 08:00:39;;;;;;;8.73;6.85;;;18.40;99.90;;;;;;5072952;28;20198;-82
2023/08/17 08:03:05;;;;;;;8.77;6.50;;;18.40;99.90;;;;;;5076020;28;20233;-82
2023/08/17 08:05:32;;;;;;;7.57;6.63;;;18.40;99.90;;;;;;5078532;28;20202;-82
2023/08/17 08:07:59;;;;;;;8.82;6.68;;;18.40;99.90;;;;;;5077976;28;20877;-82
2023/08/17 08:10:27;;;;;;;7.57;6.57;;;18.40;99.90;;;;;;5080935;28;20270;-81
2023/08/17 08:12:54;;;;;;;8.38;7.43;;;18.40;99.90;;;;;;5079220;28;20294;-82
2023/08/17 08:15:22;;;;;;;7.53;6.75;;;18.40;99.90;;;;;;5075808;28;20222;-82
2023/08/17 08:17:49;;;;;;;7.22;6.53;;;18.40;99.90;;;;;;5078332;28;20700;-82
2023/08/17 08:20:16;;;;;;;7.22;6.47;;;18.40;99.90;;;;;;5079204;28;20238;-82
2023/08/17 08:22:43;;;;;;;8.68;6.95;;;18.50;99.90;;;;;;5078478;28;20229;-80
2023/08/17 08:25:11;;;;;;;7.50;6.80;;;18.50;99.90;;;;;;5080150;28;20671;-81
2023/08/17 08:27:38;;;;;;;7.85;6.90;;;18.40;99.90;;;;;;5079000;28;20205;-83
2023/08/17 08:30:05;;;;;;;8.23;7.03;;;18.40;99.90;;;;;;5065196;28;20759;-81
2023/08/17 08:32:34;;;;;;;7.38;6.68;;;18.40;99.90;;;;;;5070038;28;20828;-83
2023/08/17 08:35:01;;;;;;;8.27;7.47;;;18.50;99.90;;;;;;5080674;28;20202;-82
2023/08/17 08:37:27;;;;;;;10.23;8.30;;;18.40;99.90;;;;;;5071086;28;20233;-82
2023/08/17 08:39:56;;;;;;;8.68;7.43;;;18.40;99.90;;;;;;5058945;28;20581;-84
2023/08/17 08:42:24;;;;;;;8.88;7.85;;;18.50;99.90;;;;;;5059265;28;20227;-81
2023/08/17 08:44:51;;;;;;;8.65;7.68;;;18.30;99.90;;;;;;5066511;28;20212;-83
2023/08/17 08:47:19;;;;;;;8.95;7.93;;;18.30;99.90;;;;;;5086312;28;20202;-82
2023/08/17 08:49:52;;;;;;;8.82;7.97;;;18.20;99.90;;;;;;5077864;28;20218;-83
2023/08/17 08:52:23;;;;;;;8.65;7.70;;;18.30;99.90;;;;;;5070998;28;20294;-82
2023/08/17 08:54:51;;;;;;;12.15;8.50;;;18.30;99.90;;;;;;5059655;28;20219;-81
2023/08/17 08:57:19;;;;;;;11.18;8.73;;;18.30;99.90;;;;;;5058441;28;20294;-83
2023/08/17 08:59:47;;;;;;;9.27;8.38;;;18.30;99.90;;;;;;5058831;28;20599;-82
2023/08/17 09:02:16;;;;;;;10.98;8.60;;;18.20;99.90;;;;;;5057814;28;20628;-82
2023/08/17 09:04:44;;;;;;;9.05;8.15;;;18.20;99.90;;;;;;5059726;28;20277;-83
2023/08/17 09:07:13;;;;;;;9.85;8.85;;;18.30;99.90;;;;;;5059452;28;20217;-83
2023/08/17 09:09:40;;;;;;;9.15;8.25;;;18.20;99.90;;;;;;5059075;28;20261;-83
2023/08/17 09:12:09;;;;;;;10.20;9.02;;;18.30;99.90;;;;;;5066167;28;20293;-83
2023/08/17 09:14:37;;;;;;;12.13;9.98;;;18.30;99.90;;;;;;5079005;28;20225;-83
2023/08/17 09:17:05;;;;;;;10.15;8.23;;;18.30;99.90;;;;;;5071267;28;20214;-82
2023/08/17 09:19:32;;;;;;;9.95;8.85;;;18.30;99.90;;;;;;5077634;28;20229;-82
2023/08/17 09:21:59;;;;;;;12.05;8.43;;;18.30;99.90;;;;;;5074128;28;20207;-83
2023/08/17 09:24:34;;;;;;;10.32;8.63;;;18.20;99.90;;;;;;5058885;28;20214;-82
2023/08/17 09:27:01;;;;;;;11.50;8.63;;;18.30;99.90;;;;;;5058137;28;20211;-83
2023/08/17 09:29:31;;;;;;;9.90;8.52;;;18.30;99.90;;;;;;5057772;28;20225;-83
2023/08/17 09:31:58;;;;;;;10.02;8.95;;;18.30;99.90;;;;;;5057779;28;20209;-82
2023/08/17 09:34:25;;;;;;;11.00;9.23;;;18.30;99.90;;;;;;5057783;28;20233;-80
2023/08/17 09:36:52;;;;;;;9.73;8.73;;;18.20;99.90;;;;;;5058982;28;20294;-82
2023/08/17 09:39:19;;;;;;;10.15;8.63;;;18.30;99.90;;;;;;5059511;28;20230;-80
2023/08/17 09:41:47;;;;;;;10.40;8.68;;;18.40;99.90;;;;;;5064167;28;20216;-80
2023/08/17 09:44:14;;;;;;;9.35;8.20;;;18.50;99.90;;;;;;5075684;28;20719;-83
2023/08/17 09:46:44;;;;;;;9.93;8.77;;;18.50;99.90;;;;;;5064134;28;20249;-83
2023/08/17 09:49:11;;;;;;;15.45;8.63;;;18.50;99.90;;;;;;5072262;28;20696;-82
2023/08/17 09:51:37;;;;;;;8.07;6.93;;;18.60;99.90;;;;;;5069373;28;20199;-82
2023/08/17 09:54:05;;;;;;;9.00;8.00;;;18.50;99.90;;;;;;5080366;28;20218;-81
2023/08/17 09:56:33;;;;;;;8.68;7.78;;;18.50;99.90;;;;;;5081891;28;20210;-83
2023/08/17 09:59:01;;;;;;;8.93;8.00;;;18.60;99.90;;;;;;5081896;28;20250;-83
2023/08/17 10:01:30;;;;;;;8.68;6.85;;;18.60;99.90;;;;;;5081636;28;20226;-83
2023/08/17 10:03:59;;;;;;;6.40;5.80;;;18.80;99.90;;;;;;5081761;28;20202;-84
2023/08/17 10:06:29;;;;;;;5.93;5.43;;;18.70;99.90;;;;;;5062469;28;20203;-82
2023/08/17 10:08:59;;;;;;;7.25;6.22;;;18.70;99.90;;;;;;5077544;28;20309;-82
2023/08/17 10:11:27;;;;;;;6.80;6.13;;;18.90;99.90;;;;;;5065797;28;20289;-81
2023/08/17 10:14:00;;;;;;;8.10;5.78;;;18.80;99.90;;;;;;5084614;28;20221;-82
2023/08/17 10:16:36;;;;;;;5.55;5.05;;;18.80;99.90;;;;;;5065846;28;20214;-82
2023/08/17 10:19:12;;;;;;;5.95;5.45;;;18.80;99.90;;;;;;5076587;28;20222;-83
2023/08/17 10:21:44;;;;;;;6.68;5.85;;;18.60;99.90;;;;;;5079024;28;20312;-82
2023/08/17 10:24:12;;;;;;;6.55;5.97;;;18.60;99.90;;;;;;5060164;28;20286;-81
2023/08/17 10:26:40;;;;;;;7.43;5.47;;;18.60;99.90;;;;;;5058556;28;20215;-83
2023/08/17 10:29:08;;;;;;;7.10;6.00;;;18.60;99.90;;;;;;5059027;28;20305;-82
2023/08/17 10:31:36;;;;;;;6.50;5.90;;;18.50;99.90;;;;;;5060586;28;20303;-82
2023/08/17 10:34:04;;;;;;;6.35;5.75;;;18.60;99.90;;;;;;5060859;28;20223;-82
2023/08/17 10:36:32;;;;;;;6.30;5.70;;;18.60;99.90;;;;;;5061619;28;20649;-82
2023/08/17 10:39:22;;;;;;;5.63;5.13;;;18.60;99.90;;;;;;5058728;28;20313;-83
2023/08/17 10:41:49;;;;;;;5.63;5.13;;;18.70;99.90;;;;;;5060409;28;20210;-82
2023/08/17 10:44:18;;;;;;;6.47;5.88;;;18.80;99.90;;;;;;5060996;28;20226;-83
2023/08/17 10:46:47;;;;;;;6.22;5.60;;;18.70;99.90;;;;;;5079014;28;20305;-83
2023/08/17 10:49:29;;;;;;;8.15;6.05;;;18.80;99.90;;;;;;5079462;28;20222;-82
2023/08/17 10:52:04;;;;;;;7.95;6.53;;;19.00;99.90;;;;;;5073285;28;20278;-82
2023/08/17 10:54:38;;;;;;;8.07;6.97;;;18.70;99.90;;;;;;5058337;28;20220;-82
2023/08/17 10:57:26;;;;;;;9.05;8.15;;;18.70;99.90;;;;;;5058828;28;20217;-83
2023/08/17 11:00:07;;;;;;;8.88;8.00;;;18.40;99.90;;;;;;5058910;28;20309;-83
2023/08/17 11:02:36;;;;;;;8.80;7.95;;;18.30;99.90;;;;;;5058459;28;20222;-83
2023/08/17 11:05:03;;;;;;;10.68;9.57;;;18.20;99.90;;;;;;5058323;28;20199;-82
2023/08/17 11:07:40;;;;;;;10.77;9.25;;;18.10;99.90;;;;;;5059328;28;20207;-82
2023/08/17 11:10:13;;;;;;;11.77;9.45;;;18.10;99.90;;;;;;5060281;28;20676;-82
2023/08/17 11:12:42;;;;;;;11.80;9.45;;;18.00;99.90;;;;;;5059937;28;20282;-84
2023/08/17 11:15:10;;;;;;;12.30;10.43;;;17.90;99.90;;;;;;5058769;28;20222;-82
2023/08/17 11:17:38;;;;;;;13.65;10.10;;;17.90;99.90;;;;;;5068439;28;20202;-83
2023/08/17 11:20:08;;;;;;;12.68;10.43;;;17.90;99.90;;;;;;5078849;28;20296;-83
2023/08/17 11:22:35;;;;;;;14.13;10.80;;;17.80;99.90;;;;;;5074730;28;20661;-83
2023/08/17 11:25:02;;;;;;;12.80;10.55;;;17.80;99.90;;;;;;5071124;28;20209;-82
2023/08/17 11:27:31;;;;;;;14.27;11.13;;;17.70;99.90;;;;;;5070816;28;20269;-81
2023/08/17 11:29:58;;;;;;;16.75;11.43;;;17.70;99.90;;;;;;5058076;28;20679;-81
2023/08/17 11:32:25;;;;;;;14.43;11.50;;;17.50;99.90;;;;;;5057299;28;20206;-83
2023/08/17 11:34:54;;;;;;;17.17;11.20;;;17.50;99.90;;;;;;5058709;28;20681;-82
2023/08/17 11:37:23;;;;;;;16.85;10.38;;;17.50;99.90;;;;;;5058696;28;20718;-83
2023/08/17 11:39:50;;;;;;;14.02;10.40;;;17.50;99.90;;;;;;5057657;28;20223;-82
2023/08/17 11:42:17;;;;;;;13.77;11.13;;;17.30;99.90;;;;;;5057755;28;20218;-82
2023/08/17 11:44:44;;;;;;;13.82;10.82;;;17.30;99.90;;;;;;5059202;28;20199;-83
2023/08/17 11:47:12;;;;;;;12.70;9.98;;;17.20;99.90;;;;;;5059018;28;20637;-82
2023/08/17 11:49:38;;;;;;;14.52;11.32;;;17.10;99.90;;;;;;5059174;28;20254;-83
2023/08/17 11:52:10;;;;;;;14.52;10.60;;;17.10;99.90;;;;;;5059928;28;20584;-83
2023/08/17 11:54:41;;;;;;;15.20;11.07;;;17.20;99.90;;;;;;5070190;28;20321;-82
2023/08/17 11:57:08;;;;;;;14.52;10.32;;;17.20;99.90;;;;;;5071850;28;20243;-82
2023/08/17 11:59:35;;;;;;;13.73;10.02;;;17.20;99.90;;;;;;5070810;28;20218;-83
2023/08/17 12:02:02;;;;;;;13.63;10.05;;;17.20;99.90;;;;;;5073144;28;20825;-83
2023/08/17 12:04:29;;;;;;;13.00;9.40;;;17.00;99.90;;;;;;5075921;28;20202;-82
2023/08/17 12:06:56;;;;;;;14.55;10.48;;;17.20;99.90;;;;;;5079510;28;20648;-82
2023/08/17 12:09:25;;;;;;;14.63;10.25;;;17.00;99.90;;;;;;5077470;28;20222;-84
2023/08/17 12:12:00;;;;;;;14.23;9.75;;;17.20;99.90;;;;;;5077884;28;20202;-81
2023/08/17 12:14:28;;;;;;;14.48;10.10;;;17.00;99.90;;;;;;5071611;28;20701;-83
2023/08/17 12:16:56;;;;;;;15.38;9.40;;;17.20;99.90;;;;;;5076472;28;20207;-83
2023/08/17 12:19:23;;;;;;;15.07;9.65;;;17.30;99.90;;;;;;5056646;28;20290;-83
2023/08/17 12:21:50;;;;;;;12.38;10.00;;;17.30;99.90;;;;;;5067031;28;20233;-84
2023/08/17 12:24:19;;;;;;;16.90;9.65;;;17.30;99.90;;;;;;5066086;28;20190;-83
2023/08/17 12:26:48;;;;;;;10.93;8.93;;;17.30;99.90;;;;;;5057138;28;20206;-82
2023/08/17 12:29:14;;;;;;;14.45;9.65;;;17.30;99.90;;;;;;5055910;28;20231;-83
2023/08/17 12:31:42;;;;;;;14.82;9.00;;;17.30;99.90;;;;;;5057502;28;20206;-83
2023/08/17 12:34:08;;;;;;;17.45;10.20;;;17.20;99.90;;;;;;5073990;28;20588;-81
2023/08/17 12:36:37;;;;;;;12.15;8.88;;;17.30;99.90;;;;;;5077569;28;20285;-84
2023/08/17 12:39:05;;;;;;;12.77;8.85;;;17.30;99.90;;;;;;5075101;28;20229;-82
2023/08/17 12:41:32;;;;;;;11.63;8.73;;;17.30;99.90;;;;;;5076719;28;20228;-81
2023/08/17 12:44:01;;;;;;;12.10;9.18;;;17.30;99.90;;;;;;5077746;28;20226;-83
2023/08/17 12:46:27;;;;;;;16.48;8.38;;;17.30;99.90;;;;;;5076749;28;20660;-82